sensor_id;sensor_type;location;lat;lon;timestamp;P1;durP1;ratioP1;P2;durP2;ratioP2
10677;SDS011;5387;48.722;9.110;2023-08-12T00:00:09;4.22;;;3.60;;
10677;SDS011;5387;48.722;9.110;2023-08-12T00:02:37;3.53;;;3.05;;
10677;SDS011;5387;48.722;9.110;2023-08-12T00:05:05;7.13;;;3.83;;
10677;SDS011;5387;48.722;9.110;2023-08-12T00:07:32;4.32;;;3.35;;
10677;SDS011;5387;48.722;9.110;2023-08-12T00:09:59;3.88;;;3.30;;
10677;SDS011;5387;48.722;9.110;2023-08-12T00:12:28;4.60;;;3.38;;
10677;SDS011;5387;48.722;9.110;2023-08-12T00:14:56;3.63;;;3.33;;
10677;SDS011;5387;48.722;9.110;2023-08-12T00:17:23;3.40;;;3.10;;
10677;SDS011;5387;48.722;9.110;2023-08-12T00:19:50;6.72;;;3.42;;
10677;SDS011;5387;48.722;9.110;2023-08-12T00:22:17;3.80;;;3.45;;
10677;SDS011;5387;48.722;9.110;2023-08-12T00:24:43;3.47;;;3.17;;
10677;SDS011;5387;48.722;9.110;2023-08-12T00:27:10;4.80;;;3.45;;
10677;SDS011;5387;48.722;9.110;2023-08-12T00:29:37;9.00;;;3.92;;
10677;SDS011;5387;48.722;9.110;2023-08-12T00:32:05;4.78;;;3.80;;
10677;SDS011;5387;48.722;9.110;2023-08-12T00:34:34;3.78;;;3.47;;
10677;SDS011;5387;48.722;9.110;2023-08-12T00:37:01;3.15;;;2.90;;
10677;SDS011;5387;48.722;9.110;2023-08-12T00:39:28;4.15;;;3.38;;
10677;SDS011;5387;48.722;9.110;2023-08-12T00:41:55;4.97;;;3.63;;
10677;SDS011;5387;48.722;9.110;2023-08-12T00:44:21;5.60;;;3.20;;
10677;SDS011;5387;48.722;9.110;2023-08-12T00:46:48;3.58;;;3.33;;
10677;SDS011;5387;48.722;9.110;2023-08-12T00:49:16;5.05;;;3.28;;
10677;SDS011;5387;48.722;9.110;2023-08-12T00:51:44;4.65;;;3.35;;
10677;SDS011;5387;48.722;9.110;2023-08-12T00:54:13;4.97;;;3.25;;
10677;SDS011;5387;48.722;9.110;2023-08-12T00:56:40;3.95;;;3.60;;
10677;SDS011;5387;48.722;9.110;2023-08-12T00:59:08;6.38;;;3.30;;
10677;SDS011;5387;48.722;9.110;2023-08-12T01:01:36;3.95;;;3.50;;
10677;SDS011;5387;48.722;9.110;2023-08-12T01:04:05;5.05;;;3.53;;
10677;SDS011;5387;48.722;9.110;2023-08-12T01:06:33;4.10;;;3.47;;
10677;SDS011;5387;48.722;9.110;2023-08-12T01:09:02;3.83;;;3.47;;
10677;SDS011;5387;48.722;9.110;2023-08-12T01:11:32;4.40;;;3.63;;
10677;SDS011;5387;48.722;9.110;2023-08-12T01:14:04;5.95;;;3.85;;
10677;SDS011;5387;48.722;9.110;2023-08-12T01:16:37;4.07;;;3.53;;
10677;SDS011;5387;48.722;9.110;2023-08-12T01:19:10;5.50;;;3.70;;
10677;SDS011;5387;48.722;9.110;2023-08-12T01:21:43;6.18;;;4.20;;
10677;SDS011;5387;48.722;9.110;2023-08-12T01:24:13;5.53;;;3.35;;
10677;SDS011;5387;48.722;9.110;2023-08-12T01:26:40;3.85;;;3.47;;
10677;SDS011;5387;48.722;9.110;2023-08-12T01:29:06;4.45;;;3.83;;
10677;SDS011;5387;48.722;9.110;2023-08-12T01:31:34;3.92;;;3.63;;
10677;SDS011;5387;48.722;9.110;2023-08-12T01:34:07;3.35;;;2.90;;
10677;SDS011;5387;48.722;9.110;2023-08-12T01:36:38;3.55;;;3.25;;
10677;SDS011;5387;48.722;9.110;2023-08-12T01:39:07;4.85;;;3.85;;
10677;SDS011;5387;48.722;9.110;2023-08-12T01:41:37;3.88;;;3.50;;
10677;SDS011;5387;48.722;9.110;2023-08-12T01:44:04;4.63;;;3.50;;
10677;SDS011;5387;48.722;9.110;2023-08-12T01:46:31;5.55;;;4.05;;
10677;SDS011;5387;48.722;9.110;2023-08-12T01:48:58;4.68;;;3.78;;
10677;SDS011;5387;48.722;9.110;2023-08-12T01:51:25;5.93;;;4.20;;
10677;SDS011;5387;48.722;9.110;2023-08-12T01:53:52;4.90;;;3.88;;
10677;SDS011;5387;48.722;9.110;2023-08-12T01:56:19;4.07;;;3.67;;
10677;SDS011;5387;48.722;9.110;2023-08-12T01:58:47;4.63;;;3.88;;
10677;SDS011;5387;48.722;9.110;2023-08-12T02:01:13;5.85;;;3.75;;
10677;SDS011;5387;48.722;9.110;2023-08-12T02:03:40;4.55;;;3.60;;
10677;SDS011;5387;48.722;9.110;2023-08-12T02:06:07;3.88;;;3.55;;
10677;SDS011;5387;48.722;9.110;2023-08-12T02:08:34;6.72;;;4.05;;
10677;SDS011;5387;48.722;9.110;2023-08-12T02:11:00;3.97;;;3.55;;
10677;SDS011;5387;48.722;9.110;2023-08-12T02:13:27;5.22;;;3.47;;
10677;SDS011;5387;48.722;9.110;2023-08-12T02:15:55;4.82;;;3.60;;
10677;SDS011;5387;48.722;9.110;2023-08-12T02:18:22;4.13;;;3.33;;
10677;SDS011;5387;48.722;9.110;2023-08-12T02:20:49;5.80;;;3.45;;
10677;SDS011;5387;48.722;9.110;2023-08-12T02:23:16;4.65;;;4.20;;
10677;SDS011;5387;48.722;9.110;2023-08-12T02:25:42;4.28;;;3.58;;
10677;SDS011;5387;48.722;9.110;2023-08-12T02:28:09;6.18;;;3.70;;
10677;SDS011;5387;48.722;9.110;2023-08-12T02:30:36;4.82;;;4.20;;
10677;SDS011;5387;48.722;9.110;2023-08-12T02:33:04;4.00;;;3.60;;
10677;SDS011;5387;48.722;9.110;2023-08-12T02:35:32;4.00;;;3.58;;
10677;SDS011;5387;48.722;9.110;2023-08-12T02:37:59;4.93;;;3.65;;
10677;SDS011;5387;48.722;9.110;2023-08-12T02:40:25;4.40;;;4.00;;
10677;SDS011;5387;48.722;9.110;2023-08-12T02:42:52;4.20;;;3.80;;
10677;SDS011;5387;48.722;9.110;2023-08-12T02:45:19;4.25;;;3.85;;
10677;SDS011;5387;48.722;9.110;2023-08-12T02:47:46;6.40;;;3.40;;
10677;SDS011;5387;48.722;9.110;2023-08-12T02:50:14;5.00;;;3.47;;
10677;SDS011;5387;48.722;9.110;2023-08-12T02:52:41;6.22;;;3.92;;
10677;SDS011;5387;48.722;9.110;2023-08-12T02:55:08;6.32;;;3.88;;
10677;SDS011;5387;48.722;9.110;2023-08-12T02:57:35;4.97;;;3.65;;
10677;SDS011;5387;48.722;9.110;2023-08-12T03:00:02;5.35;;;4.00;;
10677;SDS011;5387;48.722;9.110;2023-08-12T03:02:30;4.93;;;3.63;;
10677;SDS011;5387;48.722;9.110;2023-08-12T03:04:57;8.55;;;4.38;;
10677;SDS011;5387;48.722;9.110;2023-08-12T03:07:25;4.80;;;3.72;;
10677;SDS011;5387;48.722;9.110;2023-08-12T03:09:52;5.95;;;3.65;;
10677;SDS011;5387;48.722;9.110;2023-08-12T03:12:18;5.13;;;3.72;;
10677;SDS011;5387;48.722;9.110;2023-08-12T03:14:45;4.97;;;4.05;;
10677;SDS011;5387;48.722;9.110;2023-08-12T03:17:12;5.32;;;4.45;;
10677;SDS011;5387;48.722;9.110;2023-08-12T03:19:39;5.80;;;4.20;;
10677;SDS011;5387;48.722;9.110;2023-08-12T03:22:05;6.38;;;4.00;;
10677;SDS011;5387;48.722;9.110;2023-08-12T03:24:34;4.47;;;3.72;;
10677;SDS011;5387;48.722;9.110;2023-08-12T03:27:01;4.28;;;3.50;;
10677;SDS011;5387;48.722;9.110;2023-08-12T03:29:27;3.92;;;3.33;;
10677;SDS011;5387;48.722;9.110;2023-08-12T03:31:54;4.97;;;4.00;;
10677;SDS011;5387;48.722;9.110;2023-08-12T03:34:21;8.27;;;3.97;;
10677;SDS011;5387;48.722;9.110;2023-08-12T03:36:48;5.78;;;4.30;;
10677;SDS011;5387;48.722;9.110;2023-08-12T03:39:15;4.38;;;3.83;;
10677;SDS011;5387;48.722;9.110;2023-08-12T03:41:43;7.40;;;3.95;;
10677;SDS011;5387;48.722;9.110;2023-08-12T03:44:10;4.13;;;3.72;;
10677;SDS011;5387;48.722;9.110;2023-08-12T03:46:37;4.20;;;3.80;;
10677;SDS011;5387;48.722;9.110;2023-08-12T03:49:04;5.00;;;3.58;;
10677;SDS011;5387;48.722;9.110;2023-08-12T03:51:31;5.63;;;4.38;;
10677;SDS011;5387;48.722;9.110;2023-08-12T03:53:57;5.63;;;3.80;;
10677;SDS011;5387;48.722;9.110;2023-08-12T03:56:24;4.80;;;4.28;;
10677;SDS011;5387;48.722;9.110;2023-08-12T03:58:53;6.03;;;3.58;;
10677;SDS011;5387;48.722;9.110;2023-08-12T04:01:19;3.78;;;3.38;;
10677;SDS011;5387;48.722;9.110;2023-08-12T04:03:46;4.85;;;4.10;;
10677;SDS011;5387;48.722;9.110;2023-08-12T04:06:13;5.32;;;4.13;;
10677;SDS011;5387;48.722;9.110;2023-08-12T04:08:40;4.75;;;4.15;;
10677;SDS011;5387;48.722;9.110;2023-08-12T04:11:06;3.45;;;3.15;;
10677;SDS011;5387;48.722;9.110;2023-08-12T04:13:33;3.92;;;3.53;;
10677;SDS011;5387;48.722;9.110;2023-08-12T04:16:02;4.95;;;3.45;;
10677;SDS011;5387;48.722;9.110;2023-08-12T04:18:29;4.50;;;3.80;;
10677;SDS011;5387;48.722;9.110;2023-08-12T04:20:55;4.85;;;3.85;;
10677;SDS011;5387;48.722;9.110;2023-08-12T04:23:22;5.47;;;3.47;;
10677;SDS011;5387;48.722;9.110;2023-08-12T04:25:49;6.57;;;3.65;;
10677;SDS011;5387;48.722;9.110;2023-08-12T04:28:16;5.57;;;4.57;;
10677;SDS011;5387;48.722;9.110;2023-08-12T04:30:44;4.90;;;3.72;;
10677;SDS011;5387;48.722;9.110;2023-08-12T04:33:13;4.15;;;3.50;;
10677;SDS011;5387;48.722;9.110;2023-08-12T04:35:41;5.40;;;3.42;;
10677;SDS011;5387;48.722;9.110;2023-08-12T04:38:08;3.55;;;3.17;;
10677;SDS011;5387;48.722;9.110;2023-08-12T04:40:37;3.45;;;3.15;;
10677;SDS011;5387;48.722;9.110;2023-08-12T04:43:04;4.18;;;3.58;;
10677;SDS011;5387;48.722;9.110;2023-08-12T04:45:31;3.80;;;3.38;;
10677;SDS011;5387;48.722;9.110;2023-08-12T04:47:58;4.75;;;3.58;;
10677;SDS011;5387;48.722;9.110;2023-08-12T04:50:29;4.15;;;3.75;;
10677;SDS011;5387;48.722;9.110;2023-08-12T04:52:55;5.05;;;3.70;;
10677;SDS011;5387;48.722;9.110;2023-08-12T04:55:24;5.57;;;3.78;;
10677;SDS011;5387;48.722;9.110;2023-08-12T04:57:51;4.43;;;3.92;;
10677;SDS011;5387;48.722;9.110;2023-08-12T05:00:18;4.10;;;3.78;;
10677;SDS011;5387;48.722;9.110;2023-08-12T05:02:45;5.05;;;4.35;;
10677;SDS011;5387;48.722;9.110;2023-08-12T05:05:12;4.85;;;3.92;;
10677;SDS011;5387;48.722;9.110;2023-08-12T05:07:40;4.97;;;3.78;;
10677;SDS011;5387;48.722;9.110;2023-08-12T05:10:09;5.68;;;3.90;;
10677;SDS011;5387;48.722;9.110;2023-08-12T05:12:36;5.38;;;3.83;;
10677;SDS011;5387;48.722;9.110;2023-08-12T05:15:03;4.50;;;3.72;;
10677;SDS011;5387;48.722;9.110;2023-08-12T05:17:30;6.80;;;3.58;;
10677;SDS011;5387;48.722;9.110;2023-08-12T05:19:57;6.78;;;4.22;;
10677;SDS011;5387;48.722;9.110;2023-08-12T05:22:23;3.88;;;3.53;;
10677;SDS011;5387;48.722;9.110;2023-08-12T05:24:52;4.68;;;4.20;;
10677;SDS011;5387;48.722;9.110;2023-08-12T05:27:18;5.22;;;3.63;;
10677;SDS011;5387;48.722;9.110;2023-08-12T05:29:45;4.65;;;3.95;;
10677;SDS011;5387;48.722;9.110;2023-08-12T05:32:12;7.20;;;4.05;;
10677;SDS011;5387;48.722;9.110;2023-08-12T05:34:39;4.00;;;3.60;;
10677;SDS011;5387;48.722;9.110;2023-08-12T05:37:05;4.28;;;3.88;;
10677;SDS011;5387;48.722;9.110;2023-08-12T05:39:32;5.07;;;4.18;;
10677;SDS011;5387;48.722;9.110;2023-08-12T05:42:00;4.32;;;3.47;;
10677;SDS011;5387;48.722;9.110;2023-08-12T05:44:27;4.22;;;3.83;;
10677;SDS011;5387;48.722;9.110;2023-08-12T05:46:54;5.90;;;4.38;;
10677;SDS011;5387;48.722;9.110;2023-08-12T05:49:21;4.25;;;3.78;;
10677;SDS011;5387;48.722;9.110;2023-08-12T05:51:48;4.60;;;4.20;;
10677;SDS011;5387;48.722;9.110;2023-08-12T05:54:14;6.75;;;4.20;;
10677;SDS011;5387;48.722;9.110;2023-08-12T05:56:41;6.00;;;4.60;;
10677;SDS011;5387;48.722;9.110;2023-08-12T05:59:09;5.05;;;4.32;;
10677;SDS011;5387;48.722;9.110;2023-08-12T06:01:36;5.28;;;4.20;;
10677;SDS011;5387;48.722;9.110;2023-08-12T06:04:03;5.03;;;3.85;;
10677;SDS011;5387;48.722;9.110;2023-08-12T06:06:30;7.57;;;3.88;;
10677;SDS011;5387;48.722;9.110;2023-08-12T06:08:56;7.15;;;3.95;;
10677;SDS011;5387;48.722;9.110;2023-08-12T06:11:23;4.75;;;3.97;;
10677;SDS011;5387;48.722;9.110;2023-08-12T06:13:50;6.90;;;4.30;;
10677;SDS011;5387;48.722;9.110;2023-08-12T06:16:18;4.68;;;4.25;;
10677;SDS011;5387;48.722;9.110;2023-08-12T06:18:45;7.60;;;4.40;;
10677;SDS011;5387;48.722;9.110;2023-08-12T06:21:12;5.10;;;4.60;;
10677;SDS011;5387;48.722;9.110;2023-08-12T06:23:39;6.25;;;4.43;;
10677;SDS011;5387;48.722;9.110;2023-08-12T06:26:05;4.40;;;4.00;;
10677;SDS011;5387;48.722;9.110;2023-08-12T06:28:32;5.30;;;4.32;;
10677;SDS011;5387;48.722;9.110;2023-08-12T06:30:59;4.93;;;4.30;;
10677;SDS011;5387;48.722;9.110;2023-08-12T06:33:27;4.32;;;3.92;;
10677;SDS011;5387;48.722;9.110;2023-08-12T06:35:54;6.13;;;3.67;;
10677;SDS011;5387;48.722;9.110;2023-08-12T06:38:21;5.22;;;4.43;;
10677;SDS011;5387;48.722;9.110;2023-08-12T06:40:48;4.47;;;4.00;;
10677;SDS011;5387;48.722;9.110;2023-08-12T06:43:14;6.50;;;4.68;;
10677;SDS011;5387;48.722;9.110;2023-08-12T06:45:41;4.50;;;4.07;;
10677;SDS011;5387;48.722;9.110;2023-08-12T06:48:08;4.93;;;4.43;;
10677;SDS011;5387;48.722;9.110;2023-08-12T06:50:36;4.80;;;4.00;;
10677;SDS011;5387;48.722;9.110;2023-08-12T06:53:03;4.78;;;4.00;;
10677;SDS011;5387;48.722;9.110;2023-08-12T06:55:30;4.30;;;3.90;;
10677;SDS011;5387;48.722;9.110;2023-08-12T06:57:57;4.32;;;3.92;;
10677;SDS011;5387;48.722;9.110;2023-08-12T07:00:23;4.65;;;4.25;;
10677;SDS011;5387;48.722;9.110;2023-08-12T07:02:50;4.70;;;4.22;;
10677;SDS011;5387;48.722;9.110;2023-08-12T07:05:17;4.72;;;4.25;;
10677;SDS011;5387;48.722;9.110;2023-08-12T07:07:45;7.65;;;3.85;;
10677;SDS011;5387;48.722;9.110;2023-08-12T07:10:12;6.22;;;3.92;;
10677;SDS011;5387;48.722;9.110;2023-08-12T07:12:38;6.88;;;4.03;;
10677;SDS011;5387;48.722;9.110;2023-08-12T07:15:06;3.97;;;3.60;;
10677;SDS011;5387;48.722;9.110;2023-08-12T07:17:35;6.72;;;4.28;;
10677;SDS011;5387;48.722;9.110;2023-08-12T07:20:03;6.00;;;4.07;;
10677;SDS011;5387;48.722;9.110;2023-08-12T07:22:30;6.88;;;3.80;;
10677;SDS011;5387;48.722;9.110;2023-08-12T07:24:58;6.70;;;3.45;;
10677;SDS011;5387;48.722;9.110;2023-08-12T07:27:26;5.10;;;3.45;;
10677;SDS011;5387;48.722;9.110;2023-08-12T07:29:53;4.43;;;3.40;;
10677;SDS011;5387;48.722;9.110;2023-08-12T07:32:20;5.25;;;3.50;;
10677;SDS011;5387;48.722;9.110;2023-08-12T07:34:47;4.82;;;2.90;;
10677;SDS011;5387;48.722;9.110;2023-08-12T07:37:14;3.92;;;3.42;;
10677;SDS011;5387;48.722;9.110;2023-08-12T07:39:41;4.75;;;3.00;;
10677;SDS011;5387;48.722;9.110;2023-08-12T07:42:09;4.80;;;3.25;;
10677;SDS011;5387;48.722;9.110;2023-08-12T07:44:36;4.88;;;3.60;;
10677;SDS011;5387;48.722;9.110;2023-08-12T07:47:02;4.13;;;2.95;;
10677;SDS011;5387;48.722;9.110;2023-08-12T07:49:29;2.92;;;2.72;;
10677;SDS011;5387;48.722;9.110;2023-08-12T07:51:56;3.28;;;3.03;;
10677;SDS011;5387;48.722;9.110;2023-08-12T07:54:23;4.45;;;3.35;;
10677;SDS011;5387;48.722;9.110;2023-08-12T07:56:50;4.93;;;2.97;;
10677;SDS011;5387;48.722;9.110;2023-08-12T07:59:19;3.40;;;3.10;;
10677;SDS011;5387;48.722;9.110;2023-08-12T08:01:46;3.50;;;3.20;;
10677;SDS011;5387;48.722;9.110;2023-08-12T08:04:13;4.90;;;3.03;;
10677;SDS011;5387;48.722;9.110;2023-08-12T08:06:40;3.67;;;2.85;;
10677;SDS011;5387;48.722;9.110;2023-08-12T08:09:07;3.47;;;3.17;;
10677;SDS011;5387;48.722;9.110;2023-08-12T08:11:33;4.07;;;3.20;;
10677;SDS011;5387;48.722;9.110;2023-08-12T08:14:00;3.42;;;3.10;;
10677;SDS011;5387;48.722;9.110;2023-08-12T08:16:28;5.30;;;3.08;;
10677;SDS011;5387;48.722;9.110;2023-08-12T08:18:55;3.55;;;3.25;;
10677;SDS011;5387;48.722;9.110;2023-08-12T08:21:22;5.72;;;3.25;;
10677;SDS011;5387;48.722;9.110;2023-08-12T08:23:49;3.03;;;2.72;;
10677;SDS011;5387;48.722;9.110;2023-08-12T08:26:16;4.45;;;3.10;;
10677;SDS011;5387;48.722;9.110;2023-08-12T08:28:43;5.90;;;3.13;;
10677;SDS011;5387;48.722;9.110;2023-08-12T08:31:10;3.45;;;3.10;;
10677;SDS011;5387;48.722;9.110;2023-08-12T08:33:38;3.70;;;3.38;;
10677;SDS011;5387;48.722;9.110;2023-08-12T08:36:05;4.03;;;2.97;;
10677;SDS011;5387;48.722;9.110;2023-08-12T08:38:31;4.53;;;3.05;;
10677;SDS011;5387;48.722;9.110;2023-08-12T08:40:58;4.60;;;2.92;;
10677;SDS011;5387;48.722;9.110;2023-08-12T08:43:26;3.15;;;2.85;;
10677;SDS011;5387;48.722;9.110;2023-08-12T08:45:54;2.72;;;2.53;;
10677;SDS011;5387;48.722;9.110;2023-08-12T08:48:21;2.92;;;2.55;;
10677;SDS011;5387;48.722;9.110;2023-08-12T08:50:49;6.00;;;2.65;;
10677;SDS011;5387;48.722;9.110;2023-08-12T08:53:17;2.65;;;2.45;;
10677;SDS011;5387;48.722;9.110;2023-08-12T08:55:44;3.15;;;2.55;;
10677;SDS011;5387;48.722;9.110;2023-08-12T08:58:12;3.22;;;2.67;;
10677;SDS011;5387;48.722;9.110;2023-08-12T09:00:39;3.20;;;2.40;;
10677;SDS011;5387;48.722;9.110;2023-08-12T09:03:07;2.80;;;2.55;;
10677;SDS011;5387;48.722;9.110;2023-08-12T09:05:35;4.00;;;2.47;;
10677;SDS011;5387;48.722;9.110;2023-08-12T09:08:05;3.35;;;2.00;;
10677;SDS011;5387;48.722;9.110;2023-08-12T09:10:36;2.45;;;2.22;;
10677;SDS011;5387;48.722;9.110;2023-08-12T09:13:04;2.95;;;2.53;;
10677;SDS011;5387;48.722;9.110;2023-08-12T09:15:32;2.90;;;2.22;;
10677;SDS011;5387;48.722;9.110;2023-08-12T09:17:59;4.20;;;2.65;;
10677;SDS011;5387;48.722;9.110;2023-08-12T09:20:26;4.53;;;2.40;;
10677;SDS011;5387;48.722;9.110;2023-08-12T09:22:55;3.85;;;2.22;;
10677;SDS011;5387;48.722;9.110;2023-08-12T09:25:24;3.70;;;2.30;;
10677;SDS011;5387;48.722;9.110;2023-08-12T09:27:53;2.80;;;2.38;;
10677;SDS011;5387;48.722;9.110;2023-08-12T09:30:21;2.20;;;2.00;;
10677;SDS011;5387;48.722;9.110;2023-08-12T09:32:57;4.20;;;2.75;;
10677;SDS011;5387;48.722;9.110;2023-08-12T09:35:30;2.20;;;2.10;;
10677;SDS011;5387;48.722;9.110;2023-08-12T09:38:00;3.47;;;2.50;;
10677;SDS011;5387;48.722;9.110;2023-08-12T09:40:29;2.63;;;2.10;;
10677;SDS011;5387;48.722;9.110;2023-08-12T09:42:56;3.67;;;2.45;;
10677;SDS011;5387;48.722;9.110;2023-08-12T09:45:23;5.30;;;2.55;;
10677;SDS011;5387;48.722;9.110;2023-08-12T09:47:51;2.90;;;2.65;;
10677;SDS011;5387;48.722;9.110;2023-08-12T09:50:20;2.72;;;2.53;;
10677;SDS011;5387;48.722;9.110;2023-08-12T09:52:48;4.95;;;2.60;;
10677;SDS011;5387;48.722;9.110;2023-08-12T09:55:16;3.58;;;2.72;;
10677;SDS011;5387;48.722;9.110;2023-08-12T09:57:47;2.40;;;2.20;;
10677;SDS011;5387;48.722;9.110;2023-08-12T10:00:15;2.60;;;2.40;;
10677;SDS011;5387;48.722;9.110;2023-08-12T10:02:43;2.53;;;2.33;;
10677;SDS011;5387;48.722;9.110;2023-08-12T10:05:11;2.85;;;2.40;;
10677;SDS011;5387;48.722;9.110;2023-08-12T10:07:40;4.93;;;3.00;;
10677;SDS011;5387;48.722;9.110;2023-08-12T10:10:07;3.25;;;2.90;;
10677;SDS011;5387;48.722;9.110;2023-08-12T10:12:36;2.45;;;2.25;;
10677;SDS011;5387;48.722;9.110;2023-08-12T10:15:05;4.88;;;2.38;;
10677;SDS011;5387;48.722;9.110;2023-08-12T10:17:34;3.35;;;2.90;;
10677;SDS011;5387;48.722;9.110;2023-08-12T10:20:01;2.95;;;2.40;;
10677;SDS011;5387;48.722;9.110;2023-08-12T10:22:30;3.13;;;2.80;;
10677;SDS011;5387;48.722;9.110;2023-08-12T10:24:59;2.92;;;2.58;;
10677;SDS011;5387;48.722;9.110;2023-08-12T10:27:28;5.47;;;2.65;;
10677;SDS011;5387;48.722;9.110;2023-08-12T10:29:55;2.30;;;2.20;;
10677;SDS011;5387;48.722;9.110;2023-08-12T10:32:24;2.75;;;2.55;;
10677;SDS011;5387;48.722;9.110;2023-08-12T10:34:53;2.90;;;2.70;;
10677;SDS011;5387;48.722;9.110;2023-08-12T10:37:22;2.85;;;2.65;;
10677;SDS011;5387;48.722;9.110;2023-08-12T10:39:50;2.83;;;2.63;;
10677;SDS011;5387;48.722;9.110;2023-08-12T10:45:06;3.85;;;3.00;;
10677;SDS011;5387;48.722;9.110;2023-08-12T10:47:38;5.43;;;2.97;;
10677;SDS011;5387;48.722;9.110;2023-08-12T10:50:10;3.38;;;2.90;;
10677;SDS011;5387;48.722;9.110;2023-08-12T10:52:43;5.00;;;2.50;;
10677;SDS011;5387;48.722;9.110;2023-08-12T10:55:17;2.83;;;2.60;;
10677;SDS011;5387;48.722;9.110;2023-08-12T10:57:49;2.72;;;2.30;;
10677;SDS011;5387;48.722;9.110;2023-08-12T11:00:17;2.60;;;2.40;;
10677;SDS011;5387;48.722;9.110;2023-08-12T11:02:49;2.95;;;2.22;;
10677;SDS011;5387;48.722;9.110;2023-08-12T11:05:18;3.05;;;2.60;;
10677;SDS011;5387;48.722;9.110;2023-08-12T11:07:46;4.97;;;2.40;;
10677;SDS011;5387;48.722;9.110;2023-08-12T11:10:14;2.75;;;2.55;;
10677;SDS011;5387;48.722;9.110;2023-08-12T11:12:47;2.90;;;2.60;;
10677;SDS011;5387;48.722;9.110;2023-08-12T11:15:18;4.97;;;2.65;;
10677;SDS011;5387;48.722;9.110;2023-08-12T11:17:57;2.78;;;2.55;;
10677;SDS011;5387;48.722;9.110;2023-08-12T11:20:23;2.92;;;2.72;;
10677;SDS011;5387;48.722;9.110;2023-08-12T11:22:54;3.75;;;2.83;;
10677;SDS011;5387;48.722;9.110;2023-08-12T11:25:21;5.28;;;2.70;;
10677;SDS011;5387;48.722;9.110;2023-08-12T11:27:48;2.78;;;2.58;;
10677;SDS011;5387;48.722;9.110;2023-08-12T11:30:15;3.20;;;2.90;;
10677;SDS011;5387;48.722;9.110;2023-08-12T11:32:42;3.97;;;2.72;;
10677;SDS011;5387;48.722;9.110;2023-08-12T11:35:11;3.33;;;2.80;;
10677;SDS011;5387;48.722;9.110;2023-08-12T11:37:40;7.72;;;2.60;;
10677;SDS011;5387;48.722;9.110;2023-08-12T11:40:11;6.47;;;2.75;;
10677;SDS011;5387;48.722;9.110;2023-08-12T11:42:40;4.38;;;3.15;;
10677;SDS011;5387;48.722;9.110;2023-08-12T11:45:07;2.72;;;2.53;;
10677;SDS011;5387;48.722;9.110;2023-08-12T11:47:35;2.70;;;2.50;;
10677;SDS011;5387;48.722;9.110;2023-08-12T11:50:03;3.83;;;2.88;;
10677;SDS011;5387;48.722;9.110;2023-08-12T11:52:31;3.42;;;2.65;;
10677;SDS011;5387;48.722;9.110;2023-08-12T11:54:59;4.88;;;2.65;;
10677;SDS011;5387;48.722;9.110;2023-08-12T11:57:26;3.30;;;2.30;;
10677;SDS011;5387;48.722;9.110;2023-08-12T11:59:53;2.95;;;2.33;;
10677;SDS011;5387;48.722;9.110;2023-08-12T12:02:25;3.83;;;2.78;;
10677;SDS011;5387;48.722;9.110;2023-08-12T12:04:52;4.07;;;2.55;;
10677;SDS011;5387;48.722;9.110;2023-08-12T12:07:19;4.88;;;3.00;;
10677;SDS011;5387;48.722;9.110;2023-08-12T12:09:49;2.80;;;2.60;;
10677;SDS011;5387;48.722;9.110;2023-08-12T12:12:17;8.60;;;3.47;;
10677;SDS011;5387;48.722;9.110;2023-08-12T12:14:46;4.68;;;2.78;;
10677;SDS011;5387;48.722;9.110;2023-08-12T12:17:14;4.63;;;3.10;;
10677;SDS011;5387;48.722;9.110;2023-08-12T12:19:41;5.32;;;2.15;;
10677;SDS011;5387;48.722;9.110;2023-08-12T12:22:08;3.60;;;2.67;;
10677;SDS011;5387;48.722;9.110;2023-08-12T12:24:43;4.07;;;2.95;;
10677;SDS011;5387;48.722;9.110;2023-08-12T12:27:12;3.40;;;3.10;;
10677;SDS011;5387;48.722;9.110;2023-08-12T12:29:39;6.32;;;3.65;;
10677;SDS011;5387;48.722;9.110;2023-08-12T12:32:07;6.28;;;4.22;;
10677;SDS011;5387;48.722;9.110;2023-08-12T12:34:34;5.82;;;3.75;;
10677;SDS011;5387;48.722;9.110;2023-08-12T12:37:01;6.15;;;4.03;;
10677;SDS011;5387;48.722;9.110;2023-08-12T12:39:27;8.40;;;5.55;;
10677;SDS011;5387;48.722;9.110;2023-08-12T12:41:54;5.70;;;4.50;;
10677;SDS011;5387;48.722;9.110;2023-08-12T12:44:24;8.23;;;4.72;;
10677;SDS011;5387;48.722;9.110;2023-08-12T12:46:51;9.50;;;5.13;;
10677;SDS011;5387;48.722;9.110;2023-08-12T12:49:18;7.32;;;5.18;;
10677;SDS011;5387;48.722;9.110;2023-08-12T12:51:46;6.57;;;4.57;;
10677;SDS011;5387;48.722;9.110;2023-08-12T12:54:13;6.63;;;4.90;;
10677;SDS011;5387;48.722;9.110;2023-08-12T12:56:40;6.05;;;4.93;;
10677;SDS011;5387;48.722;9.110;2023-08-12T12:59:07;7.80;;;4.85;;
10677;SDS011;5387;48.722;9.110;2023-08-12T13:01:35;6.85;;;5.28;;
10677;SDS011;5387;48.722;9.110;2023-08-12T13:04:02;7.85;;;5.18;;
10677;SDS011;5387;48.722;9.110;2023-08-12T13:06:29;6.90;;;5.63;;
10677;SDS011;5387;48.722;9.110;2023-08-12T13:08:56;6.30;;;4.70;;
10677;SDS011;5387;48.722;9.110;2023-08-12T13:11:22;7.97;;;4.90;;
10677;SDS011;5387;48.722;9.110;2023-08-12T13:13:49;7.63;;;4.70;;
10677;SDS011;5387;48.722;9.110;2023-08-12T13:16:16;7.63;;;5.35;;
10677;SDS011;5387;48.722;9.110;2023-08-12T13:18:44;5.50;;;4.70;;
10677;SDS011;5387;48.722;9.110;2023-08-12T13:21:11;7.03;;;4.65;;
10677;SDS011;5387;48.722;9.110;2023-08-12T13:23:38;7.82;;;4.22;;
10677;SDS011;5387;48.722;9.110;2023-08-12T13:26:05;5.13;;;3.92;;
10677;SDS011;5387;48.722;9.110;2023-08-12T13:28:31;4.43;;;3.55;;
10677;SDS011;5387;48.722;9.110;2023-08-12T13:30:59;3.72;;;3.20;;
10677;SDS011;5387;48.722;9.110;2023-08-12T13:33:26;4.53;;;3.40;;
10677;SDS011;5387;48.722;9.110;2023-08-12T13:35:54;4.38;;;3.45;;
10677;SDS011;5387;48.722;9.110;2023-08-12T13:38:21;4.75;;;3.70;;
10677;SDS011;5387;48.722;9.110;2023-08-12T13:40:48;7.13;;;3.75;;
10677;SDS011;5387;48.722;9.110;2023-08-12T13:43:15;6.65;;;3.45;;
10677;SDS011;5387;48.722;9.110;2023-08-12T13:45:41;5.15;;;2.88;;
10677;SDS011;5387;48.722;9.110;2023-08-12T13:48:08;3.90;;;3.00;;
10677;SDS011;5387;48.722;9.110;2023-08-12T13:50:35;4.90;;;3.67;;
10677;SDS011;5387;48.722;9.110;2023-08-12T13:53:07;9.82;;;3.55;;
10677;SDS011;5387;48.722;9.110;2023-08-12T13:55:33;6.28;;;2.75;;
10677;SDS011;5387;48.722;9.110;2023-08-12T13:58:00;6.22;;;2.80;;
10677;SDS011;5387;48.722;9.110;2023-08-12T14:00:27;3.08;;;2.33;;
10677;SDS011;5387;48.722;9.110;2023-08-12T14:02:54;4.88;;;2.88;;
10677;SDS011;5387;48.722;9.110;2023-08-12T14:05:20;6.47;;;2.72;;
10677;SDS011;5387;48.722;9.110;2023-08-12T14:07:47;4.90;;;2.80;;
10677;SDS011;5387;48.722;9.110;2023-08-12T14:10:15;3.45;;;2.50;;
10677;SDS011;5387;48.722;9.110;2023-08-12T14:12:42;3.38;;;2.38;;
10677;SDS011;5387;48.722;9.110;2023-08-12T14:15:10;4.57;;;2.30;;
10677;SDS011;5387;48.722;9.110;2023-08-12T14:17:37;3.05;;;2.15;;
10677;SDS011;5387;48.722;9.110;2023-08-12T14:20:04;5.03;;;2.17;;
10677;SDS011;5387;48.722;9.110;2023-08-12T14:22:33;2.83;;;2.00;;
10677;SDS011;5387;48.722;9.110;2023-08-12T14:24:59;2.00;;;1.90;;
10677;SDS011;5387;48.722;9.110;2023-08-12T14:27:28;2.47;;;2.03;;
10677;SDS011;5387;48.722;9.110;2023-08-12T14:29:54;2.15;;;2.05;;
10677;SDS011;5387;48.722;9.110;2023-08-12T14:32:21;3.42;;;1.98;;
10677;SDS011;5387;48.722;9.110;2023-08-12T14:34:48;3.08;;;2.30;;
10677;SDS011;5387;48.722;9.110;2023-08-12T14:37:15;2.67;;;1.95;;
10677;SDS011;5387;48.722;9.110;2023-08-12T14:39:41;4.53;;;2.30;;
10677;SDS011;5387;48.722;9.110;2023-08-12T14:42:08;3.50;;;1.85;;
10677;SDS011;5387;48.722;9.110;2023-08-12T14:44:37;1.98;;;1.85;;
10677;SDS011;5387;48.722;9.110;2023-08-12T14:47:04;5.85;;;2.17;;
10677;SDS011;5387;48.722;9.110;2023-08-12T14:49:31;2.28;;;2.17;;
10677;SDS011;5387;48.722;9.110;2023-08-12T14:51:58;2.22;;;1.98;;
10677;SDS011;5387;48.722;9.110;2023-08-12T14:54:25;2.63;;;2.42;;
10677;SDS011;5387;48.722;9.110;2023-08-12T14:56:52;1.92;;;1.83;;
10677;SDS011;5387;48.722;9.110;2023-08-12T14:59:18;2.80;;;2.40;;
10677;SDS011;5387;48.722;9.110;2023-08-12T15:01:47;2.17;;;1.92;;
10677;SDS011;5387;48.722;9.110;2023-08-12T15:04:13;1.85;;;1.75;;